Time;durP1;ratioP1;P1;durP2;ratioP2;P2;SDS_P1;SDS_P2;PMS_P1;PMS_P2;Temp;Humidity;BMP_temperature;BMP_pressure;BME280_temperature;BME280_humidity;BME280_pressure;Samples;Min_cycle;Max_cycle;Signal;HPM_P1;HPM_P2
2024/02/09 00:01:36;;;;;;;66.72;44.70;;;;;;;;;;6257544;28;24817;-73
2024/02/09 00:04:38;;;;;;;64.80;43.40;;;;;;;;;;6262843;28;24547;-75
2024/02/09 00:07:39;;;;;;;65.40;43.17;;;;;;;;;;6265620;28;24489;-75
2024/02/09 00:10:43;;;;;;;66.05;41.65;;;;;;;;;;6262215;28;24457;-75
2024/02/09 00:13:45;;;;;;;56.53;38.20;;;;;;;;;;6263294;28;24470;-75
2024/02/09 00:16:46;;;;;;;57.88;39.30;;;;;;;;;;6269319;28;24420;-73
2024/02/09 00:19:48;;;;;;;59.43;39.30;;;;;;;;;;6266115;28;24426;-74
2024/02/09 00:22:50;;;;;;;61.13;39.57;;;;;;;;;;6267210;28;24494;-74
2024/02/09 00:25:54;;;;;;;57.60;38.10;;;;;;;;;;6266865;28;24419;-74
2024/02/09 00:28:57;;;;;;;60.17;37.90;;;;;;;;;;6267479;28;24412;-74
2024/02/09 00:31:59;;;;;;;56.78;37.25;;;;;;;;;;6267319;28;24419;-74
2024/02/09 00:35:01;;;;;;;59.20;37.15;;;;;;;;;;6265798;28;24792;-74
2024/02/09 00:38:03;;;;;;;55.92;35.58;;;;;;;;;;6267778;28;24457;-74
2024/02/09 00:41:07;;;;;;;54.75;35.55;;;;;;;;;;6267579;28;24447;-74
2024/02/09 00:44:08;;;;;;;53.17;34.80;;;;;;;;;;6266787;28;25134;-73
2024/02/09 00:47:10;;;;;;;50.73;34.37;;;;;;;;;;6265844;28;24420;-73
2024/02/09 00:50:11;;;;;;;52.40;34.33;;;;;;;;;;6265781;28;24579;-73
2024/02/09 00:53:13;;;;;;;50.80;34.08;;;;;;;;;;6267412;28;24804;-72
2024/02/09 00:56:16;;;;;;;54.55;35.58;;;;;;;;;;6265843;28;24434;-77
2024/02/09 00:59:18;;;;;;;57.85;36.33;;;;;;;;;;6262064;28;24423;-78
2024/02/09 01:02:24;;;;;;;58.35;36.45;;;;;;;;;;6268535;28;24529;-78
2024/02/09 01:05:25;;;;;;;58.17;36.85;;;;;;;;;;6266977;28;24654;-78
2024/02/09 01:08:27;;;;;;;59.60;39.03;;;;;;;;;;6264672;28;24419;-78
2024/02/09 01:11:30;;;;;;;65.80;39.93;;;;;;;;;;6264732;28;24634;-78
2024/02/09 02:47:17;;;;;;;106.43;53.87;;;;;;;;;;6266744;28;24627;-81
2024/02/09 03:06:52;;;;;;;120.63;60.30;;;;;;;;;;6247249;28;24439;-81
2024/02/09 03:09:53;;;;;;;109.85;58.88;;;;;;;;;;6269191;28;24423;-81
2024/02/09 03:12:55;;;;;;;112.82;59.35;;;;;;;;;;6266677;28;24433;-82
2024/02/09 03:15:56;;;;;;;118.82;58.80;;;;;;;;;;6264103;28;24430;-82
2024/02/09 03:18:58;;;;;;;118.40;61.97;;;;;;;;;;6264602;28;24537;-82
2024/02/09 03:22:01;;;;;;;116.68;60.08;;;;;;;;;;6266923;28;24419;-83
2024/02/09 03:25:03;;;;;;;118.57;59.67;;;;;;;;;;6265772;28;24435;-82
2024/02/09 03:28:06;;;;;;;109.40;58.00;;;;;;;;;;6265857;28;24807;-81
2024/02/09 03:31:08;;;;;;;109.40;58.25;;;;;;;;;;6266774;28;24432;-81
2024/02/09 03:34:10;;;;;;;108.90;58.97;;;;;;;;;;6263603;28;24432;-83
2024/02/09 03:37:12;;;;;;;107.03;58.50;;;;;;;;;;6265380;28;24435;-83
2024/02/09 03:40:14;;;;;;;103.63;57.08;;;;;;;;;;6264955;28;24435;-82
2024/02/09 03:43:15;;;;;;;104.60;57.67;;;;;;;;;;6267688;28;24426;-82
2024/02/09 03:46:19;;;;;;;110.50;58.30;;;;;;;;;;6267346;28;24538;-82
2024/02/09 03:49:20;;;;;;;105.30;57.00;;;;;;;;;;6268184;28;24909;-81
2024/02/09 03:52:24;;;;;;;100.72;56.35;;;;;;;;;;6271103;28;24451;-84
2024/02/09 03:55:25;;;;;;;101.47;56.03;;;;;;;;;;6272617;28;24430;-83
2024/02/09 03:58:27;;;;;;;105.50;56.50;;;;;;;;;;6269423;28;24486;-83
2024/02/09 04:01:28;;;;;;;101.07;55.47;;;;;;;;;;6270546;28;24437;-82
2024/02/09 04:04:30;;;;;;;97.32;54.83;;;;;;;;;;6270135;28;24809;-82
2024/02/09 04:07:33;;;;;;;95.60;54.47;;;;;;;;;;6266789;28;24522;-81
2024/02/09 04:10:37;;;;;;;94.07;54.65;;;;;;;;;;6270864;28;24438;-81
2024/02/09 04:13:41;;;;;;;92.32;52.75;;;;;;;;;;6270077;28;24458;-82
2024/02/09 04:16:42;;;;;;;95.45;53.35;;;;;;;;;;6271865;28;24414;-83
2024/02/09 04:19:45;;;;;;;93.60;52.67;;;;;;;;;;6271574;28;24417;-82
2024/02/09 04:22:50;;;;;;;104.88;54.25;;;;;;;;;;6268950;28;24607;-83
2024/02/09 04:25:52;;;;;;;92.72;51.15;;;;;;;;;;6268454;28;24474;-81
2024/02/09 04:28:54;;;;;;;92.65;50.33;;;;;;;;;;6266275;28;24420;-81
2024/02/09 04:31:56;;;;;;;98.45;52.67;;;;;;;;;;6268024;28;24414;-82
2024/02/09 04:34:57;;;;;;;92.00;51.50;;;;;;;;;;6271945;28;24465;-82
2024/02/09 04:38:06;;;;;;;86.00;49.85;;;;;;;;;;6269445;28;24431;-82
2024/02/09 04:41:07;;;;;;;88.78;49.80;;;;;;;;;;6271579;28;24423;-81
2024/02/09 04:44:09;;;;;;;90.65;50.05;;;;;;;;;;6267033;28;24438;-82
2024/02/09 04:47:11;;;;;;;93.60;51.47;;;;;;;;;;6269581;28;24462;-83
2024/02/09 04:50:13;;;;;;;87.90;49.00;;;;;;;;;;6269157;28;24439;-82
2024/02/09 04:53:18;;;;;;;96.80;49.88;;;;;;;;;;6268067;28;24431;-82
2024/02/09 04:56:23;;;;;;;86.55;48.08;;;;;;;;;;6267554;28;24431;-82
2024/02/09 04:59:26;;;;;;;83.15;47.38;;;;;;;;;;6268135;28;24464;-83
2024/02/09 05:02:33;;;;;;;87.57;47.40;;;;;;;;;;6268442;28;24490;-82
2024/02/09 05:05:35;;;;;;;87.32;46.90;;;;;;;;;;6265114;28;24496;-82
2024/02/09 05:08:38;;;;;;;85.18;46.45;;;;;;;;;;6270039;28;24430;-82
2024/02/09 05:11:39;;;;;;;85.05;46.50;;;;;;;;;;6267042;28;24446;-84
2024/02/09 05:14:41;;;;;;;86.70;45.97;;;;;;;;;;6267350;28;24567;-82
2024/02/09 05:17:42;;;;;;;85.20;44.97;;;;;;;;;;6267884;28;24419;-84
2024/02/09 05:20:49;;;;;;;85.95;44.50;;;;;;;;;;6268366;28;24431;-82
2024/02/09 05:23:51;;;;;;;82.57;45.03;;;;;;;;;;6268417;28;24470;-82
2024/02/09 05:26:53;;;;;;;84.10;44.85;;;;;;;;;;6267956;28;24439;-82
2024/02/09 05:29:54;;;;;;;78.97;43.53;;;;;;;;;;6266626;28;24439;-83
2024/02/09 05:32:56;;;;;;;81.80;43.65;;;;;;;;;;6265908;28;24608;-83
2024/02/09 05:35:57;;;;;;;80.75;44.50;;;;;;;;;;6268061;28;24502;-83
2024/02/09 05:39:00;;;;;;;84.78;44.42;;;;;;;;;;6267214;28;24459;-83
2024/02/09 05:42:02;;;;;;;82.80;43.40;;;;;;;;;;6269122;28;24619;-82
2024/02/09 05:45:05;;;;;;;81.80;43.17;;;;;;;;;;6265426;28;24434;-83
2024/02/09 05:48:09;;;;;;;81.45;43.60;;;;;;;;;;6270348;28;24527;-82
2024/02/09 05:51:11;;;;;;;77.80;41.92;;;;;;;;;;6265657;28;24856;-83
2024/02/09 05:54:14;;;;;;;79.10;42.50;;;;;;;;;;6265148;28;24427;-83
2024/02/09 05:57:16;;;;;;;82.93;42.42;;;;;;;;;;6264722;28;24439;-84
2024/02/09 06:00:18;;;;;;;79.22;42.55;;;;;;;;;;6268603;28;24503;-84
2024/02/09 06:03:19;;;;;;;83.10;42.42;;;;;;;;;;6267904;28;24424;-83
2024/02/09 06:06:21;;;;;;;86.38;43.05;;;;;;;;;;6267148;28;24408;-82
2024/02/09 06:09:24;;;;;;;85.90;43.25;;;;;;;;;;6266714;28;24428;-84
2024/02/09 06:12:26;;;;;;;83.05;43.00;;;;;;;;;;6266952;28;24525;-82
2024/02/09 06:15:27;;;;;;;82.18;42.35;;;;;;;;;;6268840;28;24430;-83
2024/02/09 06:18:29;;;;;;;82.07;41.65;;;;;;;;;;6265583;28;24428;-84
2024/02/09 06:21:31;;;;;;;80.43;42.15;;;;;;;;;;6264280;28;24427;-84
2024/02/09 06:24:34;;;;;;;77.10;41.25;;;;;;;;;;6268037;28;24521;-84
2024/02/09 06:27:35;;;;;;;80.45;42.65;;;;;;;;;;6267065;28;24423;-83
2024/02/09 06:30:37;;;;;;;78.45;41.00;;;;;;;;;;6267098;28;24485;-84
2024/02/09 06:33:38;;;;;;;83.10;42.53;;;;;;;;;;6265895;28;24427;-82
2024/02/09 06:36:39;;;;;;;89.33;43.60;;;;;;;;;;6265412;28;24472;-82
2024/02/09 06:39:42;;;;;;;83.88;41.90;;;;;;;;;;6263822;28;24626;-82
2024/02/09 06:42:44;;;;;;;87.85;42.60;;;;;;;;;;6267645;28;24432;-82
2024/02/09 06:45:45;;;;;;;89.20;42.87;;;;;;;;;;6261913;28;24424;-81
2024/02/09 06:48:47;;;;;;;90.82;42.85;;;;;;;;;;6264726;28;24546;-82
2024/02/09 06:51:51;;;;;;;90.63;44.17;;;;;;;;;;6263304;28;24503;-82
2024/02/09 06:54:54;;;;;;;91.40;44.35;;;;;;;;;;6265694;28;24814;-82
2024/02/09 06:57:56;;;;;;;91.57;43.73;;;;;;;;;;6265697;28;24461;-82
2024/02/09 07:00:59;;;;;;;92.90;44.10;;;;;;;;;;6265981;28;24438;-82
2024/02/09 07:04:01;;;;;;;92.40;44.20;;;;;;;;;;6265008;28;24603;-83
2024/02/09 07:07:05;;;;;;;93.28;44.65;;;;;;;;;;6265052;28;24439;-81
2024/02/09 07:10:09;;;;;;;94.03;44.63;;;;;;;;;;6266779;28;24429;-82
2024/02/09 07:13:10;;;;;;;95.40;45.92;;;;;;;;;;6264560;28;24853;-81
2024/02/09 07:16:12;;;;;;;97.85;48.10;;;;;;;;;;6263494;28;24422;-81
2024/02/09 07:19:15;;;;;;;93.65;46.67;;;;;;;;;;6265495;28;24477;-82
2024/02/09 07:22:17;;;;;;;98.13;47.55;;;;;;;;;;6261315;28;24873;-81
2024/02/09 07:25:20;;;;;;;103.75;46.72;;;;;;;;;;6264286;28;24420;-83
2024/02/09 07:28:22;;;;;;;97.70;47.15;;;;;;;;;;6266338;28;24435;-81
2024/02/09 07:31:24;;;;;;;104.57;47.53;;;;;;;;;;6266253;28;24478;-81
2024/02/09 07:34:25;;;;;;;102.85;47.78;;;;;;;;;;6263858;28;24428;-82
2024/02/09 07:37:27;;;;;;;105.75;48.13;;;;;;;;;;6265089;28;24807;-82
2024/02/09 07:40:30;;;;;;;105.90;48.88;;;;;;;;;;6267330;28;24638;-83
2024/02/09 07:43:31;;;;;;;106.15;49.30;;;;;;;;;;6265324;28;24458;-83
2024/02/09 07:46:33;;;;;;;106.90;49.75;;;;;;;;;;6263025;28;24854;-82
2024/02/09 07:49:34;;;;;;;111.07;50.03;;;;;;;;;;6266263;28;24663;-81
2024/02/09 07:52:38;;;;;;;111.80;48.22;;;;;;;;;;6263177;28;24458;-82
2024/02/09 07:55:41;;;;;;;108.20;48.83;;;;;;;;;;6264058;28;24487;-82
2024/02/09 07:58:42;;;;;;;115.38;50.20;;;;;;;;;;6265948;28;24426;-81
2024/02/09 08:01:44;;;;;;;123.10;52.05;;;;;;;;;;6264672;28;24416;-82
2024/02/09 08:04:45;;;;;;;114.18;50.20;;;;;;;;;;6262947;28;24801;-82
2024/02/09 08:07:47;;;;;;;108.65;49.65;;;;;;;;;;6265897;28;24412;-81
2024/02/09 08:10:50;;;;;;;124.35;53.05;;;;;;;;;;6265197;28;25024;-84
2024/02/09 08:13:51;;;;;;;122.10;52.10;;;;;;;;;;6267473;28;24434;-82
2024/02/09 08:16:53;;;;;;;119.63;52.80;;;;;;;;;;6261138;28;24419;-82
2024/02/09 08:19:57;;;;;;;128.23;60.05;;;;;;;;;;6266903;28;24426;-83
2024/02/09 08:22:58;;;;;;;149.48;75.78;;;;;;;;;;6263878;28;24423;-82
2024/02/09 08:26:01;;;;;;;126.90;57.33;;;;;;;;;;6268856;28;24613;-82
2024/02/09 08:29:03;;;;;;;124.18;52.63;;;;;;;;;;6268102;28;24805;-82
2024/02/09 08:32:05;;;;;;;123.60;52.00;;;;;;;;;;6267180;28;24419;-82
2024/02/09 08:35:07;;;;;;;117.15;52.22;;;;;;;;;;6266760;28;24420;-82
2024/02/09 08:38:08;;;;;;;125.25;54.17;;;;;;;;;;6270252;28;24564;-83
2024/02/09 08:41:11;;;;;;;116.97;52.57;;;;;;;;;;6271349;28;24984;-84
2024/02/09 08:44:13;;;;;;;117.43;51.83;;;;;;;;;;6268988;28;24418;-82
2024/02/09 08:47:14;;;;;;;164.43;78.60;;;;;;;;;;6266356;28;24864;-84
2024/02/09 08:50:16;;;;;;;126.67;57.20;;;;;;;;;;6269898;28;24424;-82
2024/02/09 08:53:17;;;;;;;127.32;54.42;;;;;;;;;;6268807;28;24426;-82
2024/02/09 08:56:20;;;;;;;132.60;55.00;;;;;;;;;;6267266;28;24539;-82
2024/02/09 08:59:22;;;;;;;132.50;55.10;;;;;;;;;;6270211;28;24442;-82
2024/02/09 09:02:23;;;;;;;127.75;54.00;;;;;;;;;;6270363;28;24813;-82
2024/02/09 09:05:25;;;;;;;132.00;55.67;;;;;;;;;;6269309;28;24427;-81
2024/02/09 09:08:27;;;;;;;130.77;55.72;;;;;;;;;;6270362;28;24814;-81
2024/02/09 09:11:29;;;;;;;129.98;54.58;;;;;;;;;;6268684;28;24426;-82
2024/02/09 09:14:32;;;;;;;134.02;57.28;;;;;;;;;;6271342;28;24422;-83
2024/02/09 09:17:33;;;;;;;139.27;58.00;;;;;;;;;;6265858;28;24416;-83
2024/02/09 09:20:35;;;;;;;142.38;59.03;;;;;;;;;;6268400;28;24620;-81
2024/02/09 09:23:37;;;;;;;136.88;57.55;;;;;;;;;;6268119;28;24416;-83
2024/02/09 09:26:40;;;;;;;136.48;57.60;;;;;;;;;;6267058;28;24424;-82
2024/02/09 09:29:41;;;;;;;144.75;58.35;;;;;;;;;;6268430;28;24427;-83
2024/02/09 09:32:42;;;;;;;133.20;56.92;;;;;;;;;;6265833;28;24423;-83
2024/02/09 09:35:44;;;;;;;137.73;56.38;;;;;;;;;;6267015;28;24434;-83
2024/02/09 09:38:45;;;;;;;132.90;56.00;;;;;;;;;;6267604;28;24423;-83
2024/02/09 09:41:50;;;;;;;138.03;56.53;;;;;;;;;;6269423;28;24535;-82
2024/02/09 09:44:54;;;;;;;130.30;56.93;;;;;;;;;;6266516;28;24539;-83
2024/02/09 09:47:56;;;;;;;131.98;56.00;;;;;;;;;;6264675;28;24753;-81
2024/02/09 09:50:59;;;;;;;139.95;58.13;;;;;;;;;;6268292;28;24419;-82
2024/02/09 09:54:01;;;;;;;144.65;57.22;;;;;;;;;;6263589;28;24427;-83
2024/02/09 09:57:05;;;;;;;137.43;57.67;;;;;;;;;;6265328;28;24527;-83
2024/02/09 10:00:07;;;;;;;142.13;57.22;;;;;;;;;;6264433;28;24442;-83
2024/02/09 10:03:10;;;;;;;139.18;57.05;;;;;;;;;;6266016;28;24620;-84
2024/02/09 10:06:11;;;;;;;134.52;56.35;;;;;;;;;;6267944;28;24538;-83
2024/02/09 10:09:14;;;;;;;143.13;58.13;;;;;;;;;;6267190;28;24503;-80
2024/02/09 10:12:17;;;;;;;144.65;58.42;;;;;;;;;;6267612;28;24829;-81
2024/02/09 10:15:18;;;;;;;132.45;55.85;;;;;;;;;;6265214;28;24458;-80
2024/02/09 10:18:20;;;;;;;139.57;56.90;;;;;;;;;;6268962;28;24503;-79
2024/02/09 10:21:21;;;;;;;138.15;57.42;;;;;;;;;;6267733;28;24432;-80
2024/02/09 10:24:23;;;;;;;141.10;57.38;;;;;;;;;;6269375;28;24827;-80
2024/02/09 10:27:25;;;;;;;151.38;63.00;;;;;;;;;;6265529;28;24457;-82
2024/02/09 10:30:29;;;;;;;180.50;79.43;;;;;;;;;;6268642;28;24423;-80
2024/02/09 10:33:31;;;;;;;164.25;67.13;;;;;;;;;;6266367;28;24821;-81
2024/02/09 10:36:32;;;;;;;141.07;57.33;;;;;;;;;;6267860;28;24756;-80
2024/02/09 10:39:34;;;;;;;146.63;56.47;;;;;;;;;;6268424;28;24825;-81
2024/02/09 10:42:38;;;;;;;137.27;56.63;;;;;;;;;;6266892;28;24419;-82
2024/02/09 10:45:41;;;;;;;149.07;58.40;;;;;;;;;;6267343;28;24438;-82
2024/02/09 10:48:43;;;;;;;141.55;56.45;;;;;;;;;;6264778;28;24431;-81
2024/02/09 10:51:47;;;;;;;143.17;55.40;;;;;;;;;;6263338;28;24431;-83
2024/02/09 10:54:50;;;;;;;141.68;55.22;;;;;;;;;;6265478;28;24644;-83
2024/02/09 10:57:54;;;;;;;129.73;54.33;;;;;;;;;;6265127;28;24502;-82
2024/02/09 11:00:55;;;;;;;138.55;54.83;;;;;;;;;;6265909;28;24447;-81
2024/02/09 11:03:57;;;;;;;139.05;55.42;;;;;;;;;;6265359;28;24471;-81
2024/02/09 11:06:58;;;;;;;136.82;54.03;;;;;;;;;;6268601;28;24435;-83
2024/02/09 11:10:00;;;;;;;130.63;52.55;;;;;;;;;;6267715;28;24635;-83
2024/02/09 11:13:03;;;;;;;130.07;53.17;;;;;;;;;;6265376;28;24419;-81
2024/02/09 11:16:07;;;;;;;122.95;50.90;;;;;;;;;;6266073;28;24810;-81
2024/02/09 11:19:11;;;;;;;121.20;50.70;;;;;;;;;;6262740;28;24578;-82
2024/02/09 11:22:13;;;;;;;117.40;48.38;;;;;;;;;;6261560;28;24844;-84
2024/02/09 11:25:15;;;;;;;114.20;49.35;;;;;;;;;;6262865;28;24415;-81
2024/02/09 11:28:20;;;;;;;120.20;52.47;;;;;;;;;;6264696;28;24611;-80
2024/02/09 11:31:24;;;;;;;124.97;51.38;;;;;;;;;;6265624;28;24408;-82
2024/02/09 11:34:26;;;;;;;117.03;49.78;;;;;;;;;;6264812;28;24506;-82
2024/02/09 11:37:29;;;;;;;117.88;50.40;;;;;;;;;;6265150;28;24432;-81
2024/02/09 11:40:30;;;;;;;110.00;46.60;;;;;;;;;;6268601;28;24442;-83
2024/02/09 11:43:33;;;;;;;106.43;47.00;;;;;;;;;;6269153;28;24783;-82
2024/02/09 11:46:36;;;;;;;107.60;46.77;;;;;;;;;;6262748;28;24419;-84
2024/02/09 11:49:40;;;;;;;159.23;75.17;;;;;;;;;;6266392;28;24404;-85
2024/02/09 11:52:44;;;;;;;215.80;101.03;;;;;;;;;;6264866;28;24442;-82
2024/02/09 11:55:45;;;;;;;144.85;64.88;;;;;;;;;;6265347;28;24415;-82
2024/02/09 11:58:49;;;;;;;124.55;53.28;;;;;;;;;;6266934;28;24426;-82
2024/02/09 12:01:53;;;;;;;129.57;58.63;;;;;;;;;;6263706;28;24423;-82
2024/02/09 12:04:54;;;;;;;138.23;60.47;;;;;;;;;;6263224;28;24457;-81
2024/02/09 12:07:58;;;;;;;149.35;69.53;;;;;;;;;;6262759;28;24435;-83
2024/02/09 12:11:00;;;;;;;137.85;63.38;;;;;;;;;;6271126;28;24471;-80
2024/02/09 12:14:03;;;;;;;101.78;46.10;;;;;;;;;;6273408;28;24826;-81
2024/02/09 12:17:04;;;;;;;106.22;45.00;;;;;;;;;;6269576;28;24416;-81
2024/02/09 12:20:10;;;;;;;103.88;45.67;;;;;;;;;;6267729;28;24435;-81
2024/02/09 12:23:11;;;;;;;103.07;44.33;;;;;;;;;;6270728;28;24494;-81
2024/02/09 12:26:15;;;;;;;100.00;43.58;;;;;;;;;;6267287;28;24426;-81
2024/02/09 12:29:18;;;;;;;100.22;43.45;;;;;;;;;;6270428;28;24810;-83
2024/02/09 12:32:21;;;;;;;103.97;43.50;;;;;;;;;;6266564;28;24430;-82
2024/02/09 12:35:26;;;;;;;104.05;42.65;;;;;;;;;;6269217;28;24415;-82
2024/02/09 12:38:28;;;;;;;108.38;43.65;;;;;;;;;;6267802;28;24431;-81
2024/02/09 12:41:29;;;;;;;100.15;42.53;;;;;;;;;;6268771;28;24654;-82
2024/02/09 12:44:32;;;;;;;100.75;43.28;;;;;;;;;;6268285;28;24411;-80
2024/02/09 12:47:34;;;;;;;99.30;41.38;;;;;;;;;;6267879;28;24416;-80
2024/02/09 12:50:37;;;;;;;100.43;44.78;;;;;;;;;;6267460;28;24412;-81
2024/02/09 12:53:39;;;;;;;94.15;40.15;;;;;;;;;;6268631;28;24415;-82
2024/02/09 12:56:40;;;;;;;98.22;41.80;;;;;;;;;;6266981;28;24420;-81
2024/02/09 12:59:43;;;;;;;103.20;42.20;;;;;;;;;;6270595;28;24493;-82
2024/02/09 13:02:45;;;;;;;100.05;41.90;;;;;;;;;;6268576;28;24483;-80
2024/02/09 13:05:46;;;;;;;100.60;40.72;;;;;;;;;;6268581;28;24423;-80
2024/02/09 13:08:48;;;;;;;99.93;43.60;;;;;;;;;;6269372;28;24424;-81
2024/02/09 13:11:51;;;;;;;97.07;41.13;;;;;;;;;;6267942;28;24510;-81
2024/02/09 13:14:54;;;;;;;95.50;40.38;;;;;;;;;;6266676;28;24412;-81
2024/02/09 13:17:56;;;;;;;92.95;39.85;;;;;;;;;;6268118;28;24416;-81
2024/02/09 13:20:58;;;;;;;95.95;40.35;;;;;;;;;;6264996;28;24442;-81
2024/02/09 13:24:00;;;;;;;97.40;40.08;;;;;;;;;;6266141;28;24478;-81
2024/02/09 13:27:02;;;;;;;92.28;39.78;;;;;;;;;;6264514;28;24819;-81
2024/02/09 13:30:07;;;;;;;92.05;38.60;;;;;;;;;;6266730;28;24836;-81
2024/02/09 13:33:09;;;;;;;96.03;39.27;;;;;;;;;;6269613;28;24495;-80
2024/02/09 13:36:11;;;;;;;90.78;37.72;;;;;;;;;;6268939;28;24423;-80
2024/02/09 13:39:13;;;;;;;87.50;37.93;;;;;;;;;;6269366;28;24471;-81
2024/02/09 13:42:15;;;;;;;82.68;37.28;;;;;;;;;;6269793;28;24505;-80
2024/02/09 13:45:19;;;;;;;87.80;35.67;;;;;;;;;;6270095;28;24416;-82
2024/02/09 13:48:20;;;;;;;88.32;36.88;;;;;;;;;;6265338;28;24803;-80
2024/02/09 13:51:24;;;;;;;84.15;36.28;;;;;;;;;;6270642;28;24836;-79
2024/02/09 13:54:25;;;;;;;78.25;34.08;;;;;;;;;;6270579;28;24454;-80
2024/02/09 13:57:27;;;;;;;79.43;33.80;;;;;;;;;;6269030;28;24423;-82
2024/02/09 14:00:30;;;;;;;78.05;32.80;;;;;;;;;;6267922;28;24587;-82
2024/02/09 14:03:32;;;;;;;74.70;31.20;;;;;;;;;;6269054;28;24551;-83
2024/02/09 14:06:35;;;;;;;71.45;31.35;;;;;;;;;;6270518;28;24542;-82
2024/02/09 14:09:36;;;;;;;72.80;30.98;;;;;;;;;;6270685;28;24495;-82
2024/02/09 14:12:38;;;;;;;67.40;31.20;;;;;;;;;;6268093;28;24627;-83
2024/02/09 14:15:41;;;;;;;65.68;30.90;;;;;;;;;;6265916;28;24477;-81
2024/02/09 14:18:42;;;;;;;68.95;30.67;;;;;;;;;;6268057;28;24852;-81
2024/02/09 14:21:44;;;;;;;68.70;31.05;;;;;;;;;;6266465;28;24848;-81
2024/02/09 14:24:46;;;;;;;70.90;30.40;;;;;;;;;;6269676;28;24656;-81
2024/02/09 14:27:50;;;;;;;68.18;30.25;;;;;;;;;;6268769;28;24435;-82
2024/02/09 14:30:53;;;;;;;68.18;30.00;;;;;;;;;;6267914;28;24423;-82
2024/02/09 14:33:54;;;;;;;77.68;38.97;;;;;;;;;;6269178;28;24415;-84
2024/02/09 14:36:56;;;;;;;106.45;51.25;;;;;;;;;;6267434;28;24428;-84
2024/02/09 14:39:58;;;;;;;89.85;43.47;;;;;;;;;;6267766;28;24477;-84
2024/02/09 14:42:59;;;;;;;102.70;48.47;;;;;;;;;;6267884;28;24424;-85
2024/02/09 14:46:02;;;;;;;90.70;41.90;;;;;;;;;;6264561;28;24605;-86
2024/02/09 14:49:04;;;;;;;77.47;36.20;;;;;;;;;;6265859;28;24430;-83
2024/02/09 14:52:07;;;;;;;54.83;27.65;;;;;;;;;;6267704;28;24463;-83
2024/02/09 14:55:10;;;;;;;52.08;25.55;;;;;;;;;;6265032;28;24478;-82
2024/02/09 14:58:11;;;;;;;47.75;24.55;;;;;;;;;;6264056;28;24438;-82
2024/02/09 15:01:16;;;;;;;48.20;23.90;;;;;;;;;;6264692;28;24435;-83
2024/02/09 15:04:17;;;;;;;39.70;21.45;;;;;;;;;;6265549;28;24424;-79
2024/02/09 15:07:21;;;;;;;38.28;19.98;;;;;;;;;;6263125;28;24422;-81
2024/02/09 15:10:22;;;;;;;39.70;19.92;;;;;;;;;;6265679;28;24427;-82
2024/02/09 15:13:26;;;;;;;34.00;18.35;;;;;;;;;;6266377;28;24434;-82
2024/02/09 15:16:29;;;;;;;33.85;18.02;;;;;;;;;;6267514;28;24446;-84
2024/02/09 15:19:31;;;;;;;31.17;16.67;;;;;;;;;;6265059;28;24494;-83
2024/02/09 15:22:32;;;;;;;30.13;16.45;;;;;;;;;;6265578;28;24439;-83
2024/02/09 15:25:34;;;;;;;26.88;15.70;;;;;;;;;;6265623;28;24428;-82
2024/02/09 15:28:37;;;;;;;28.10;15.88;;;;;;;;;;6267367;28;24759;-83
2024/02/09 15:31:40;;;;;;;25.40;14.60;;;;;;;;;;6264693;28;24468;-83
2024/02/09 15:34:44;;;;;;;28.77;14.23;;;;;;;;;;6266431;28;24771;-81
2024/02/09 15:37:45;;;;;;;25.20;15.05;;;;;;;;;;6260824;28;24848;-81
2024/02/09 15:40:47;;;;;;;27.77;14.95;;;;;;;;;;6266299;28;24431;-82
2024/02/09 15:43:48;;;;;;;27.55;14.68;;;;;;;;;;6267929;28;24470;-83
2024/02/09 15:46:53;;;;;;;27.03;15.40;;;;;;;;;;6265351;28;24461;-81
2024/02/09 15:49:54;;;;;;;34.10;18.20;;;;;;;;;;6264806;28;24424;-84
2024/02/09 15:52:56;;;;;;;27.33;15.30;;;;;;;;;;6263617;28;24636;-81
2024/02/09 15:55:58;;;;;;;29.27;15.57;;;;;;;;;;6263675;28;24812;-82
2024/02/09 15:59:00;;;;;;;31.98;16.02;;;;;;;;;;6267165;28;24516;-81
2024/02/09 16:02:03;;;;;;;30.08;15.40;;;;;;;;;;6263872;28;24416;-82
2024/02/09 16:05:10;;;;;;;28.10;15.13;;;;;;;;;;6265857;28;24434;-82
2024/02/09 16:08:12;;;;;;;26.27;14.75;;;;;;;;;;6263640;28;24412;-83
2024/02/09 16:11:13;;;;;;;27.38;15.95;;;;;;;;;;6262028;28;24439;-81
2024/02/09 16:14:16;;;;;;;28.88;15.23;;;;;;;;;;6266555;28;24415;-81
2024/02/09 16:17:19;;;;;;;29.73;15.20;;;;;;;;;;6263311;28;24493;-82
2024/02/09 16:20:22;;;;;;;27.90;14.65;;;;;;;;;;6265433;28;24458;-82
2024/02/09 16:23:24;;;;;;;29.65;15.30;;;;;;;;;;6265393;28;24442;-82
2024/02/09 16:26:26;;;;;;;27.70;15.85;;;;;;;;;;6264986;28;24423;-82
2024/02/09 16:29:27;;;;;;;24.75;15.25;;;;;;;;;;6265069;28;25033;-83
2024/02/09 16:32:30;;;;;;;29.05;14.63;;;;;;;;;;6266881;28;24626;-83
2024/02/09 16:35:31;;;;;;;28.40;14.95;;;;;;;;;;6264420;28;24439;-82
2024/02/09 16:38:33;;;;;;;26.20;15.02;;;;;;;;;;6263840;28;24447;-82
2024/02/09 16:41:34;;;;;;;29.23;15.10;;;;;;;;;;6264705;28;24836;-83
2024/02/09 16:44:37;;;;;;;25.88;15.18;;;;;;;;;;6266123;28;24417;-82
2024/02/09 16:47:39;;;;;;;27.93;14.80;;;;;;;;;;6265545;28;24849;-83
2024/02/09 16:50:41;;;;;;;169.18;86.18;;;;;;;;;;6264810;28;24426;-84
2024/02/09 16:53:43;;;;;;;151.80;84.00;;;;;;;;;;6266596;28;24416;-82
2024/02/09 16:56:45;;;;;;;41.20;22.60;;;;;;;;;;6268213;28;24420;-81
2024/02/09 16:59:47;;;;;;;32.20;16.60;;;;;;;;;;6263676;28;24415;-82
2024/02/09 17:02:50;;;;;;;27.13;15.82;;;;;;;;;;6268777;28;24470;-81
2024/02/09 17:05:54;;;;;;;27.80;16.00;;;;;;;;;;6266292;28;24488;-81
2024/02/09 17:08:55;;;;;;;28.85;17.25;;;;;;;;;;6265597;28;24458;-82
2024/02/09 17:11:59;;;;;;;31.40;16.80;;;;;;;;;;6268354;28;24419;-82
2024/02/09 17:15:07;;;;;;;35.40;17.60;;;;;;;;;;6268274;28;24427;-80
2024/02/09 17:18:10;;;;;;;36.53;18.58;;;;;;;;;;6268838;28;24498;-82
2024/02/09 17:21:12;;;;;;;33.33;19.27;;;;;;;;;;6269743;28;24802;-82
2024/02/09 17:24:14;;;;;;;38.85;20.75;;;;;;;;;;6268862;28;24837;-83
2024/02/09 17:27:15;;;;;;;37.40;21.08;;;;;;;;;;6270116;28;24826;-83
2024/02/09 17:30:17;;;;;;;39.85;21.23;;;;;;;;;;6271268;28;24424;-81
2024/02/09 17:33:21;;;;;;;39.50;21.83;;;;;;;;;;6265913;28;24430;-80
2024/02/09 17:36:23;;;;;;;42.55;22.65;;;;;;;;;;6267271;28;24833;-82
2024/02/09 17:39:27;;;;;;;42.33;22.75;;;;;;;;;;6265664;28;24426;-82
2024/02/09 17:42:28;;;;;;;39.08;21.83;;;;;;;;;;6264194;28;24458;-82
2024/02/09 17:45:32;;;;;;;47.35;23.48;;;;;;;;;;6266093;28;24506;-83
2024/02/09 17:48:36;;;;;;;44.22;23.65;;;;;;;;;;6266726;28;24461;-83
2024/02/09 17:51:37;;;;;;;40.78;22.33;;;;;;;;;;6268600;28;24426;-83
2024/02/09 17:54:38;;;;;;;40.53;21.98;;;;;;;;;;6266906;28;24474;-82
2024/02/09 17:57:40;;;;;;;42.65;22.27;;;;;;;;;;6269258;28;24631;-82
2024/02/09 18:00:41;;;;;;;42.27;22.40;;;;;;;;;;6264013;28;24474;-83
2024/02/09 18:03:44;;;;;;;40.13;22.38;;;;;;;;;;6264769;28;24504;-82
2024/02/09 18:06:46;;;;;;;43.93;23.50;;;;;;;;;;6267760;28;24430;-81
2024/02/09 18:09:47;;;;;;;49.10;24.27;;;;;;;;;;6262714;28;24431;-82
2024/02/09 18:12:49;;;;;;;47.17;25.02;;;;;;;;;;6265104;28;24836;-82
2024/02/09 18:15:50;;;;;;;51.93;25.83;;;;;;;;;;6267546;28;24439;-82
2024/02/09 18:18:53;;;;;;;51.95;26.45;;;;;;;;;;6264650;28;24712;-82
2024/02/09 18:21:55;;;;;;;52.13;26.90;;;;;;;;;;6263852;28;24841;-82
2024/02/09 18:24:56;;;;;;;53.35;26.83;;;;;;;;;;6264213;28;24803;-82
2024/02/09 18:27:58;;;;;;;65.40;29.87;;;;;;;;;;6269378;28;24416;-82
2024/02/09 18:31:00;;;;;;;56.08;28.55;;;;;;;;;;6268357;28;24418;-82
2024/02/09 18:34:03;;;;;;;55.97;28.45;;;;;;;;;;6268944;28;24823;-81
2024/02/09 18:37:04;;;;;;;57.07;28.00;;;;;;;;;;6266717;28;24434;-81
2024/02/09 18:40:12;;;;;;;57.03;27.90;;;;;;;;;;6264633;28;24430;-81
2024/02/09 18:43:14;;;;;;;53.47;28.27;;;;;;;;;;6266630;28;24837;-81
2024/02/09 18:46:15;;;;;;;61.10;28.98;;;;;;;;;;6264847;28;24420;-81
2024/02/09 18:49:20;;;;;;;59.60;29.33;;;;;;;;;;6266495;28;24635;-81
2024/02/09 18:52:21;;;;;;;61.92;29.33;;;;;;;;;;6263975;28;24848;-80
2024/02/09 18:55:23;;;;;;;57.67;28.40;;;;;;;;;;6267725;28;24770;-81
2024/02/09 18:58:25;;;;;;;58.85;28.27;;;;;;;;;;6270432;28;24438;-81
2024/02/09 19:01:26;;;;;;;56.63;28.67;;;;;;;;;;6267525;28;24443;-82
2024/02/09 19:04:30;;;;;;;57.33;28.33;;;;;;;;;;6265910;28;24420;-81
2024/02/09 19:07:31;;;;;;;60.20;28.97;;;;;;;;;;6265862;28;24548;-83
2024/02/09 19:10:34;;;;;;;56.78;28.58;;;;;;;;;;6266574;28;24967;-82
2024/02/09 19:13:35;;;;;;;62.03;28.33;;;;;;;;;;6266384;28;24470;-82
2024/02/09 19:16:38;;;;;;;56.92;28.67;;;;;;;;;;6264253;28;24420;-81
2024/02/09 19:19:42;;;;;;;55.17;27.73;;;;;;;;;;6265136;28;24453;-80
2024/02/09 19:22:43;;;;;;;55.17;28.97;;;;;;;;;;6264516;28;24476;-82